Time;durP1;ratioP1;P1;durP2;ratioP2;P2;SDS_P1;SDS_P2;PMS_P1;PMS_P2;Temp;Humidity;BMP_temperature;BMP_pressure;BME280_temperature;BME280_humidity;BME280_pressure;Samples;Min_cycle;Max_cycle;Signal;HPM_P1;HPM_P2
2022/06/26 00:00:19;;;;;;;3.80;2.60;;;20.30;99.90;;;;;;5043639;28;20227;-43
2022/06/26 00:02:47;;;;;;;4.55;3.03;;;20.30;99.90;;;;;;5028185;28;20303;-43
2022/06/26 00:05:14;;;;;;;5.07;3.45;;;20.30;99.90;;;;;;5041736;28;20207;-43
2022/06/26 00:07:42;;;;;;;4.47;2.90;;;20.30;99.90;;;;;;5040054;28;20750;-43
2022/06/26 00:10:09;;;;;;;3.80;2.88;;;20.30;99.90;;;;;;5047068;28;20227;-42
2022/06/26 00:12:39;;;;;;;4.55;3.10;;;20.30;99.90;;;;;;5044224;28;20250;-43
2022/06/26 00:15:10;;;;;;;5.10;3.20;;;20.20;99.90;;;;;;5044515;28;20303;-43
2022/06/26 00:17:37;;;;;;;4.60;3.17;;;20.20;99.90;;;;;;5043234;28;20238;-43
2022/06/26 00:20:06;;;;;;;4.28;3.17;;;20.20;99.90;;;;;;5046782;28;20250;-43
2022/06/26 00:22:35;;;;;;;5.28;3.30;;;20.20;99.90;;;;;;5038274;28;20761;-43
2022/06/26 00:25:03;;;;;;;6.43;3.70;;;20.10;99.90;;;;;;5043837;28;20257;-42
2022/06/26 00:27:30;;;;;;;4.82;3.50;;;20.10;99.90;;;;;;5047233;28;20605;-42
2022/06/26 00:30:02;;;;;;;3.40;3.10;;;20.10;99.90;;;;;;5043178;28;20256;-42
2022/06/26 00:32:30;;;;;;;6.25;3.83;;;20.10;99.90;;;;;;5042406;28;20216;-42
2022/06/26 00:34:57;;;;;;;6.22;3.83;;;20.00;99.90;;;;;;5044882;28;20289;-42
2022/06/26 00:37:26;;;;;;;6.55;3.50;;;20.00;99.90;;;;;;5044192;28;20277;-42
2022/06/26 00:39:58;;;;;;;4.80;3.35;;;19.90;99.90;;;;;;5038109;28;20308;-42
2022/06/26 00:42:32;;;;;;;3.60;2.95;;;19.90;99.90;;;;;;5046745;28;20223;-42
2022/06/26 00:45:02;;;;;;;5.00;3.22;;;19.90;99.90;;;;;;5033501;28;20213;-42
2022/06/26 00:47:31;;;;;;;4.03;3.28;;;19.90;99.90;;;;;;5043913;28;20208;-41
2022/06/26 00:49:59;;;;;;;5.07;3.90;;;19.90;99.90;;;;;;5044086;28;20305;-42
2022/06/26 00:52:27;;;;;;;3.67;3.08;;;19.90;99.90;;;;;;5046109;28;20216;-42
2022/06/26 00:54:57;;;;;;;5.07;3.75;;;19.80;99.90;;;;;;5044572;28;20742;-42
2022/06/26 00:57:28;;;;;;;7.68;3.83;;;19.80;99.90;;;;;;5045171;28;20569;-33
2022/06/26 00:59:56;;;;;;;8.23;3.83;;;19.70;99.90;;;;;;5044489;28;20220;-33
2022/06/26 01:02:23;;;;;;;6.03;4.20;;;19.70;99.90;;;;;;5043372;28;20201;-33
2022/06/26 01:04:53;;;;;;;5.45;3.50;;;19.70;99.90;;;;;;5041791;28;20249;-33
2022/06/26 01:07:20;;;;;;;5.22;3.60;;;19.60;99.90;;;;;;5030565;28;20216;-33
2022/06/26 01:09:55;;;;;;;5.97;3.55;;;19.60;99.90;;;;;;5040712;28;20293;-32
2022/06/26 01:12:23;;;;;;;6.30;3.60;;;19.60;99.90;;;;;;5046982;28;20220;-32
2022/06/26 01:14:53;;;;;;;7.88;4.03;;;19.60;99.90;;;;;;5044253;28;20216;-33
2022/06/26 01:17:21;;;;;;;6.07;4.05;;;19.50;99.90;;;;;;5045553;28;20203;-32
2022/06/26 01:19:50;;;;;;;5.60;3.85;;;19.50;99.90;;;;;;5041781;28;20212;-32
2022/06/26 01:22:18;;;;;;;7.22;3.60;;;19.50;99.90;;;;;;5044428;28;20224;-33
2022/06/26 01:24:45;;;;;;;4.78;3.50;;;19.50;99.90;;;;;;5044123;28;20212;-32
2022/06/26 01:27:15;;;;;;;6.20;3.80;;;19.50;99.90;;;;;;5042124;28;20559;-33
2022/06/26 01:29:47;;;;;;;5.40;3.60;;;19.50;99.90;;;;;;5045402;28;20231;-33
2022/06/26 01:32:15;;;;;;;6.13;3.60;;;19.40;99.90;;;;;;5038775;28;20247;-33
2022/06/26 01:34:42;;;;;;;5.88;4.15;;;19.40;99.90;;;;;;5038699;28;20203;-32
2022/06/26 01:37:09;;;;;;;4.50;3.53;;;19.40;99.90;;;;;;5043365;28;20247;-33
2022/06/26 01:39:39;;;;;;;5.53;3.72;;;19.40;99.90;;;;;;5041666;28;20216;-32
2022/06/26 01:42:06;;;;;;;4.20;3.38;;;19.40;99.90;;;;;;5045168;28;20204;-32
2022/06/26 01:44:36;;;;;;;5.93;3.88;;;19.30;99.90;;;;;;5042686;28;20208;-32
2022/06/26 01:47:03;;;;;;;6.22;3.85;;;19.30;99.90;;;;;;5045268;28;20204;-33
2022/06/26 01:49:31;;;;;;;5.00;3.90;;;19.30;99.90;;;;;;5041023;28;20286;-32
2022/06/26 01:51:58;;;;;;;8.23;3.70;;;19.30;99.90;;;;;;5043808;28;20319;-32
2022/06/26 01:54:25;;;;;;;4.18;3.00;;;19.30;99.90;;;;;;5044754;28;20200;-32
2022/06/26 01:56:59;;;;;;;4.53;3.25;;;19.30;99.90;;;;;;5041508;28;20306;-32
2022/06/26 01:59:26;;;;;;;4.75;3.25;;;19.30;99.90;;;;;;5039524;28;20637;-32
2022/06/26 02:01:56;;;;;;;5.32;3.20;;;19.20;99.90;;;;;;5045226;28;20664;-33
2022/06/26 02:04:26;;;;;;;4.72;2.78;;;19.20;99.90;;;;;;5046129;28;20577;-33
2022/06/26 02:06:53;;;;;;;5.72;3.20;;;19.20;99.90;;;;;;5040306;28;20624;-32
2022/06/26 02:14:53;;;;;;;8.98;4.05;;;19.10;99.90;;;;;;5041920;28;20269;-32
2022/06/26 02:17:21;;;;;;;5.25;3.10;;;19.00;99.90;;;;;;5044881;28;20200;-32
2022/06/26 02:19:48;;;;;;;3.83;2.90;;;19.00;99.90;;;;;;5044999;28;20204;-32
2022/06/26 02:22:15;;;;;;;4.20;2.83;;;19.00;99.90;;;;;;5042866;28;20592;-33
2022/06/26 02:24:45;;;;;;;4.97;3.25;;;18.90;99.90;;;;;;5041891;28;20216;-32
2022/06/26 02:27:13;;;;;;;3.67;2.88;;;18.90;99.90;;;;;;5045878;28;20204;-32
2022/06/26 02:29:42;;;;;;;4.22;3.08;;;18.90;99.90;;;;;;5046180;28;20691;-33
2022/06/26 02:32:09;;;;;;;3.80;3.40;;;18.80;99.90;;;;;;5044275;28;20516;-32
2022/06/26 02:34:37;;;;;;;4.95;3.30;;;18.80;99.90;;;;;;5041603;28;20208;-32
2022/06/26 02:37:06;;;;;;;4.45;3.05;;;18.80;99.90;;;;;;5045813;28;20602;-33
2022/06/26 02:39:33;;;;;;;3.57;3.10;;;18.80;99.90;;;;;;5040564;28;20705;-32
2022/06/26 02:42:03;;;;;;;3.38;2.95;;;18.70;99.90;;;;;;5042673;28;20223;-32
2022/06/26 02:44:30;;;;;;;4.32;3.03;;;18.70;99.90;;;;;;5042551;28;20281;-33
2022/06/26 02:46:57;;;;;;;5.35;3.20;;;18.70;99.90;;;;;;5043412;28;20764;-33
2022/06/26 02:49:24;;;;;;;5.65;3.28;;;18.60;99.90;;;;;;5045744;28;20240;-32
2022/06/26 02:51:52;;;;;;;5.80;3.30;;;18.60;99.90;;;;;;5044055;28;20204;-32
2022/06/26 02:54:26;;;;;;;5.28;3.20;;;18.60;99.90;;;;;;5043521;28;20251;-32
2022/06/26 02:56:54;;;;;;;4.53;2.58;;;18.50;99.90;;;;;;5031685;28;20295;-32
2022/06/26 02:59:21;;;;;;;3.60;2.70;;;18.50;99.90;;;;;;5050594;28;20200;-42
2022/06/26 03:01:48;;;;;;;3.55;2.72;;;18.50;99.90;;;;;;5038088;28;20658;-42
2022/06/26 03:04:16;;;;;;;3.72;3.38;;;18.50;99.90;;;;;;5042634;28;20205;-42
2022/06/26 03:06:45;;;;;;;4.68;2.80;;;18.50;99.90;;;;;;5047244;28;20274;-42
2022/06/26 03:09:15;;;;;;;4.00;3.03;;;18.50;99.90;;;;;;5049000;28;20224;-42
2022/06/26 03:11:42;;;;;;;4.28;2.65;;;18.40;99.90;;;;;;5045457;28;20596;-42
2022/06/26 03:14:12;;;;;;;4.95;2.88;;;18.40;99.90;;;;;;5046385;28;20224;-41
2022/06/26 03:16:42;;;;;;;3.10;2.80;;;18.40;99.90;;;;;;5046392;28;20214;-42
2022/06/26 03:19:09;;;;;;;7.60;2.90;;;18.40;99.90;;;;;;5048519;28;20299;-41
2022/06/26 03:21:36;;;;;;;3.03;2.73;;;18.40;99.90;;;;;;5046498;28;20242;-32
2022/06/26 03:24:04;;;;;;;4.35;2.47;;;18.40;99.90;;;;;;5045335;28;20228;-32
2022/06/26 03:26:34;;;;;;;2.75;2.42;;;18.40;99.90;;;;;;5044198;28;20219;-32
2022/06/26 03:29:04;;;;;;;3.28;2.38;;;18.30;99.90;;;;;;5049449;28;20241;-32
2022/06/26 03:31:33;;;;;;;4.82;3.20;;;18.40;99.90;;;;;;5044433;28;20275;-32
2022/06/26 03:34:05;;;;;;;3.05;2.30;;;18.30;99.90;;;;;;5048113;28;20678;-33
2022/06/26 03:36:37;;;;;;;3.00;2.63;;;18.30;99.90;;;;;;5047760;28;20325;-33
2022/06/26 03:39:07;;;;;;;4.47;2.38;;;18.30;99.90;;;;;;5046402;28;20192;-33
2022/06/26 03:41:34;;;;;;;3.63;2.50;;;18.30;99.90;;;;;;5044561;28;20207;-33
2022/06/26 03:44:04;;;;;;;5.32;2.72;;;18.30;99.90;;;;;;5036550;28;20609;-32
2022/06/26 03:46:31;;;;;;;2.72;2.40;;;18.30;99.90;;;;;;5042092;28;20203;-32
2022/06/26 03:49:02;;;;;;;4.68;2.60;;;18.30;99.90;;;;;;5048099;28;20732;-33
2022/06/26 03:51:34;;;;;;;4.43;2.70;;;18.30;99.90;;;;;;5042532;28;20295;-33
2022/06/26 03:54:03;;;;;;;4.03;2.33;;;18.30;99.90;;;;;;5045806;28;20689;-32
2022/06/26 03:56:32;;;;;;;6.43;3.30;;;18.30;99.90;;;;;;5047486;28;20199;-33
2022/06/26 03:59:00;;;;;;;3.67;2.58;;;18.30;99.90;;;;;;5043885;28;20591;-33
2022/06/26 04:01:27;;;;;;;3.40;2.80;;;18.30;99.90;;;;;;5046228;28;20655;-32
2022/06/26 04:03:54;;;;;;;3.17;2.80;;;18.30;99.90;;;;;;5045993;28;20227;-32
2022/06/26 04:06:26;;;;;;;3.17;2.50;;;18.40;99.90;;;;;;5045989;28;20196;-32
2022/06/26 04:08:53;;;;;;;5.07;2.70;;;18.40;99.90;;;;;;5043464;28;20220;-32
2022/06/26 04:11:20;;;;;;;3.77;2.70;;;18.40;99.90;;;;;;5044097;28;20780;-32
2022/06/26 04:13:51;;;;;;;3.95;2.42;;;18.40;99.90;;;;;;5046984;28;20202;-32
2022/06/26 04:16:21;;;;;;;2.93;2.63;;;18.40;99.90;;;;;;5047823;28;20287;-32
2022/06/26 04:18:51;;;;;;;4.57;2.92;;;18.40;99.90;;;;;;5039061;28;20219;-32
2022/06/26 04:21:21;;;;;;;4.90;2.83;;;18.40;99.90;;;;;;5043608;28;20629;-32
2022/06/26 04:23:48;;;;;;;6.63;3.10;;;18.40;99.90;;;;;;5045710;28;20586;-32
2022/06/26 04:26:17;;;;;;;4.83;3.10;;;18.40;99.90;;;;;;5046553;28;20270;-32
2022/06/26 04:28:45;;;;;;;5.07;3.00;;;18.40;99.90;;;;;;5046805;28;20239;-33
2022/06/26 04:31:12;;;;;;;3.60;2.88;;;18.40;99.90;;;;;;5039643;28;20258;-32
2022/06/26 04:33:43;;;;;;;5.43;3.03;;;18.40;99.90;;;;;;5046336;28;20637;-32
2022/06/26 04:36:12;;;;;;;4.57;2.80;;;18.40;99.90;;;;;;5032025;28;20221;-33
2022/06/26 04:38:41;;;;;;;3.78;3.30;;;18.40;99.90;;;;;;5044586;28;20221;-42
2022/06/26 04:43:56;;;;;;;3.90;2.50;;;18.40;99.90;;;;;;5041436;28;20243;-42
2022/06/26 04:46:23;;;;;;;4.82;2.92;;;18.40;99.90;;;;;;5045810;28;20211;-42
2022/06/26 04:48:53;;;;;;;3.70;2.60;;;18.40;99.90;;;;;;5044835;28;20211;-42
2022/06/26 04:51:20;;;;;;;2.97;2.78;;;18.40;99.90;;;;;;5043776;28;20589;-41
2022/06/26 04:53:47;;;;;;;2.60;2.13;;;18.50;99.90;;;;;;5047104;28;20200;-42
2022/06/26 04:56:17;;;;;;;3.63;2.70;;;18.50;99.90;;;;;;5044568;28;20204;-42
2022/06/26 04:58:44;;;;;;;5.07;2.85;;;18.50;99.90;;;;;;5047210;28;20592;-42
2022/06/26 05:01:11;;;;;;;2.95;2.38;;;18.60;99.90;;;;;;5041942;28;20250;-42
2022/06/26 05:03:40;;;;;;;4.65;2.70;;;18.60;99.90;;;;;;5043664;28;20310;-42
2022/06/26 05:06:11;;;;;;;6.57;2.75;;;18.70;99.90;;;;;;5047745;28;20353;-42
2022/06/26 05:08:38;;;;;;;3.45;2.95;;;18.80;99.90;;;;;;5029862;28;20239;-43
2022/06/26 05:11:08;;;;;;;3.70;2.27;;;18.90;99.90;;;;;;5044083;28;20708;-42
2022/06/26 05:13:37;;;;;;;2.92;2.30;;;18.90;99.90;;;;;;5041348;28;20208;-42
2022/06/26 05:16:07;;;;;;;4.60;2.67;;;19.00;99.90;;;;;;5038217;28;20200;-43
2022/06/26 05:18:37;;;;;;;4.80;2.70;;;19.10;99.90;;;;;;5044666;28;20196;-42
2022/06/26 05:21:05;;;;;;;3.83;2.45;;;19.20;99.90;;;;;;5039900;28;20290;-42
2022/06/26 05:23:34;;;;;;;3.53;2.42;;;19.30;99.90;;;;;;5043547;28;20688;-43
2022/06/26 05:26:02;;;;;;;5.07;2.47;;;19.30;99.90;;;;;;5044078;28;20212;-43
2022/06/26 05:28:29;;;;;;;3.97;2.40;;;19.30;99.90;;;;;;5047112;28;20368;-43
2022/06/26 05:30:56;;;;;;;2.90;2.40;;;19.40;99.90;;;;;;5044553;28;20311;-43
2022/06/26 05:33:24;;;;;;;5.53;2.42;;;19.40;99.90;;;;;;5042453;28;20685;-42
2022/06/26 05:35:54;;;;;;;4.75;2.42;;;19.40;99.90;;;;;;5044082;28;20196;-42
2022/06/26 05:38:21;;;;;;;4.80;2.15;;;19.50;99.90;;;;;;5046113;28;20232;-42
2022/06/26 05:40:48;;;;;;;4.45;2.65;;;19.50;99.90;;;;;;5036108;28;20687;-33
2022/06/26 05:43:18;;;;;;;3.75;2.30;;;19.50;99.90;;;;;;5041773;28;20632;-32
2022/06/26 05:45:48;;;;;;;4.07;2.58;;;19.50;99.90;;;;;;5034662;28;20208;-32
2022/06/26 05:48:15;;;;;;;4.97;3.25;;;19.60;99.90;;;;;;5043311;28;20311;-32
2022/06/26 05:50:42;;;;;;;3.28;2.55;;;19.60;99.90;;;;;;5045982;28;20232;-32
2022/06/26 05:53:10;;;;;;;2.65;2.42;;;19.60;99.90;;;;;;5038792;28;21071;-33
2022/06/26 05:55:40;;;;;;;7.15;2.97;;;19.60;99.90;;;;;;5041978;28;20668;-32
2022/06/26 05:58:07;;;;;;;6.45;2.85;;;19.70;99.90;;;;;;5036835;28;20841;-33
2022/06/26 06:00:37;;;;;;;5.00;2.65;;;19.70;99.90;;;;;;5044362;28;20214;-32
2022/06/26 06:03:07;;;;;;;5.60;3.10;;;19.70;99.90;;;;;;5046018;28;20212;-33
2022/06/26 06:05:35;;;;;;;4.85;2.97;;;19.70;99.90;;;;;;5038810;28;20227;-32
2022/06/26 06:08:05;;;;;;;4.28;2.58;;;19.80;99.90;;;;;;5046448;28;20644;-33
2022/06/26 06:10:32;;;;;;;5.00;3.00;;;19.80;99.90;;;;;;5040361;28;20338;-33
2022/06/26 06:13:10;;;;;;;9.07;3.75;;;19.80;99.90;;;;;;5041107;28;20228;-33
2022/06/26 06:15:38;;;;;;;4.32;3.15;;;19.80;99.90;;;;;;5040785;28;20688;-32
2022/06/26 06:18:08;;;;;;;7.30;3.35;;;19.80;99.90;;;;;;5029802;28;20675;-32
2022/06/26 06:20:37;;;;;;;4.07;2.83;;;19.80;99.90;;;;;;5052802;28;20236;-33
2022/06/26 06:23:27;;;;;;;10.23;3.78;;;19.80;99.90;;;;;;5036705;28;20269;-32
2022/06/26 06:25:59;;;;;;;3.45;2.65;;;19.80;99.90;;;;;;5039934;28;20322;-33
2022/06/26 06:28:28;;;;;;;4.35;3.42;;;19.80;99.90;;;;;;5042745;28;20266;-32
2022/06/26 06:30:55;;;;;;;4.78;3.20;;;19.80;99.90;;;;;;5055072;28;20226;-32
2022/06/26 06:33:25;;;;;;;3.13;2.75;;;19.80;99.90;;;;;;5039397;28;21418;-33
2022/06/26 06:35:55;;;;;;;4.22;3.03;;;19.80;99.90;;;;;;5028114;28;20246;-33
2022/06/26 06:38:23;;;;;;;4.53;2.80;;;19.90;99.90;;;;;;5041959;28;20232;-32
2022/06/26 06:40:51;;;;;;;4.75;3.15;;;19.80;99.90;;;;;;5041422;28;20219;-33
2022/06/26 06:43:20;;;;;;;7.55;3.35;;;19.80;99.90;;;;;;5040950;28;20626;-33
2022/06/26 06:45:51;;;;;;;6.25;3.40;;;19.80;99.90;;;;;;5040990;28;20236;-32
2022/06/26 06:48:24;;;;;;;4.68;3.47;;;19.80;99.90;;;;;;5040154;28;20220;-32
2022/06/26 06:50:52;;;;;;;3.95;3.08;;;19.90;99.90;;;;;;5047971;28;20211;-32
2022/06/26 06:53:20;;;;;;;4.57;3.30;;;19.90;99.90;;;;;;5047219;28;20203;-32
2022/06/26 06:55:50;;;;;;;5.32;3.55;;;19.90;99.90;;;;;;5048323;28;20211;-35
2022/06/26 06:58:17;;;;;;;5.28;3.08;;;19.90;99.90;;;;;;5040401;28;20586;-32
2022/06/26 07:00:44;;;;;;;4.30;3.20;;;19.90;99.90;;;;;;5043132;28;20200;-32
2022/06/26 07:03:16;;;;;;;6.50;3.95;;;19.90;99.90;;;;;;5047193;28;20300;-33
2022/06/26 07:05:43;;;;;;;5.38;3.17;;;19.90;99.90;;;;;;5047506;28;20382;-33
2022/06/26 07:08:10;;;;;;;4.18;2.95;;;19.90;99.90;;;;;;5039465;28;20709;-32
2022/06/26 07:10:40;;;;;;;4.60;3.28;;;20.00;99.90;;;;;;5054021;28;20223;-32
2022/06/26 07:13:10;;;;;;;5.03;2.72;;;20.00;99.90;;;;;;5041343;28;20281;-33
2022/06/26 07:15:38;;;;;;;5.82;3.10;;;20.00;99.90;;;;;;5039490;28;20686;-32
2022/06/26 07:18:05;;;;;;;5.50;3.28;;;20.00;99.90;;;;;;5037183;28;20196;-33
2022/06/26 07:20:32;;;;;;;7.07;3.22;;;20.10;99.90;;;;;;5039313;28;20298;-33
2022/06/26 07:23:00;;;;;;;7.65;3.03;;;20.10;99.90;;;;;;5041160;28;20212;-43
2022/06/26 07:25:31;;;;;;;4.75;2.78;;;20.10;99.90;;;;;;5040245;28;20258;-42
2022/06/26 07:28:01;;;;;;;9.52;3.28;;;20.10;99.90;;;;;;5038806;28;20291;-42
2022/06/26 07:30:28;;;;;;;6.10;3.35;;;20.20;99.90;;;;;;5040325;28;20322;-43
2022/06/26 07:33:03;;;;;;;4.45;2.53;;;20.20;99.90;;;;;;5048434;28;20204;-43
2022/06/26 07:35:30;;;;;;;7.55;2.78;;;20.20;99.90;;;;;;5046032;28;20205;-43
2022/06/26 07:37:58;;;;;;;4.55;2.78;;;20.20;99.90;;;;;;5049122;28;20242;-43
2022/06/26 07:40:25;;;;;;;4.65;3.05;;;20.20;99.90;;;;;;5043573;28;20212;-43
2022/06/26 07:42:52;;;;;;;4.85;3.08;;;20.30;99.90;;;;;;5047114;28;20216;-42
2022/06/26 07:45:22;;;;;;;3.30;2.60;;;20.30;99.90;;;;;;5047941;28;20231;-43
2022/06/26 07:47:49;;;;;;;5.45;2.75;;;20.40;99.90;;;;;;5041260;28;20212;-43
2022/06/26 07:50:16;;;;;;;4.40;2.45;;;20.40;99.90;;;;;;5045370;28;20232;-42
2022/06/26 07:52:43;;;;;;;4.18;2.85;;;20.40;99.90;;;;;;5047226;28;20306;-42
2022/06/26 07:55:11;;;;;;;3.88;2.88;;;20.50;99.90;;;;;;5048313;28;20293;-42
2022/06/26 07:57:38;;;;;;;6.93;2.83;;;20.50;99.90;;;;;;5047871;28;20200;-42
2022/06/26 08:00:08;;;;;;;4.13;2.80;;;20.60;99.90;;;;;;5045473;28;20212;-42
2022/06/26 08:02:36;;;;;;;4.25;2.75;;;20.60;99.90;;;;;;5049204;28;20299;-43
2022/06/26 08:05:03;;;;;;;3.78;2.70;;;20.60;99.90;;;;;;5048578;28;20200;-43
2022/06/26 08:07:36;;;;;;;4.85;3.08;;;20.70;99.90;;;;;;5046824;28;20677;-43
2022/06/26 08:10:04;;;;;;;4.93;3.20;;;20.70;99.90;;;;;;5045907;28;20315;-43
2022/06/26 08:12:34;;;;;;;4.45;2.70;;;20.80;99.90;;;;;;5046676;28;20302;-43
2022/06/26 08:15:05;;;;;;;6.43;3.30;;;20.80;99.90;;;;;;5046604;28;20208;-42
2022/06/26 08:17:34;;;;;;;4.50;2.80;;;20.90;99.90;;;;;;5040190;28;20226;-42
2022/06/26 08:20:02;;;;;;;4.88;3.28;;;20.90;99.90;;;;;;5047142;28;20235;-42
2022/06/26 08:22:32;;;;;;;4.75;3.05;;;21.00;99.90;;;;;;5047044;28;20239;-43
2022/06/26 08:25:02;;;;;;;3.85;2.67;;;21.00;99.90;;;;;;5045118;28;20273;-42
2022/06/26 08:27:31;;;;;;;6.05;3.25;;;21.10;99.90;;;;;;5041303;28;20228;-42
2022/06/26 08:30:03;;;;;;;4.28;3.00;;;21.10;99.90;;;;;;5039851;28;20636;-43
2022/06/26 08:32:32;;;;;;;4.68;2.90;;;21.20;99.90;;;;;;5048466;28;20232;-43
2022/06/26 08:35:03;;;;;;;7.45;3.28;;;21.20;99.90;;;;;;5046751;28;20266;-33
2022/06/26 08:37:30;;;;;;;5.20;3.10;;;21.20;99.90;;;;;;5043084;28;20570;-33
2022/06/26 08:39:58;;;;;;;6.50;3.20;;;21.20;99.90;;;;;;5039849;28;20657;-43
2022/06/26 08:42:30;;;;;;;5.47;3.05;;;21.30;99.90;;;;;;5028529;28;20213;-42
2022/06/26 08:45:00;;;;;;;5.70;3.13;;;21.30;99.90;;;;;;5061275;28;20757;-43
2022/06/26 08:47:32;;;;;;;5.07;2.60;;;21.30;99.90;;;;;;5042571;28;20212;-43
2022/06/26 08:50:00;;;;;;;6.13;3.08;;;21.30;99.90;;;;;;5039150;28;20205;-43
2022/06/26 08:52:30;;;;;;;5.72;2.75;;;21.40;99.90;;;;;;5043109;28;20224;-43
2022/06/26 08:54:57;;;;;;;6.05;3.25;;;21.40;99.90;;;;;;5060087;28;20222;-42
2022/06/26 08:57:26;;;;;;;5.93;3.45;;;21.40;99.90;;;;;;5049732;28;20235;-43
2022/06/26 08:59:53;;;;;;;4.28;2.72;;;21.50;99.90;;;;;;5046444;28;20216;-43
2022/06/26 09:02:20;;;;;;;5.53;2.80;;;21.50;99.90;;;;;;5047485;28;20251;-43
2022/06/26 09:04:48;;;;;;;4.85;2.58;;;21.60;99.90;;;;;;5046383;28;20766;-42
2022/06/26 09:07:15;;;;;;;4.38;2.88;;;21.60;99.90;;;;;;5047071;28;20570;-42
2022/06/26 09:09:45;;;;;;;4.18;2.67;;;21.70;99.90;;;;;;5045082;28;20682;-42
2022/06/26 09:12:12;;;;;;;6.68;3.08;;;21.80;99.90;;;;;;5046301;28;20216;-42
2022/06/26 09:14:40;;;;;;;5.00;3.03;;;21.80;99.90;;;;;;5034034;28;20212;-43
2022/06/26 09:17:09;;;;;;;6.35;2.80;;;21.90;99.90;;;;;;5039836;28;20220;-42
2022/06/26 09:19:44;;;;;;;4.43;2.72;;;21.90;99.90;;;;;;5045196;28;20270;-42
2022/06/26 09:22:17;;;;;;;3.88;2.42;;;22.00;99.90;;;;;;5044735;28;20197;-43
2022/06/26 09:24:55;;;;;;;5.28;3.17;;;22.00;99.90;;;;;;5061806;28;20204;-43
2022/06/26 09:27:25;;;;;;;4.53;2.90;;;22.10;99.90;;;;;;5045639;28;20299;-43
2022/06/26 09:29:54;;;;;;;6.60;2.63;;;22.10;99.90;;;;;;5039423;28;20215;-43
2022/06/26 09:32:23;;;;;;;8.02;2.63;;;22.20;99.90;;;;;;5044619;28;20238;-42
2022/06/26 09:34:52;;;;;;;3.55;2.47;;;22.20;99.90;;;;;;5046143;28;20655;-42
2022/06/26 09:37:23;;;;;;;5.40;2.97;;;22.30;99.90;;;;;;5044509;28;20610;-33
2022/06/26 09:40:17;;;;;;;5.90;2.90;;;22.30;99.90;;;;;;5038839;28;20204;-33
2022/06/26 09:42:46;;;;;;;9.15;3.05;;;22.40;99.90;;;;;;5043452;28;20212;-33
2022/06/26 09:45:16;;;;;;;7.03;2.30;;;22.40;99.90;;;;;;5042037;28;20686;-32
2022/06/26 09:47:44;;;;;;;4.68;1.90;;;22.50;99.90;;;;;;5043902;28;20223;-33
2022/06/26 09:50:12;;;;;;;4.43;2.53;;;22.60;99.90;;;;;;5043086;28;20674;-33
2022/06/26 09:52:45;;;;;;;6.22;3.10;;;22.60;99.90;;;;;;5036109;28;20220;-33
2022/06/26 09:55:13;;;;;;;7.35;2.58;;;22.70;99.90;;;;;;5043406;28;20223;-33
2022/06/26 09:57:42;;;;;;;2.30;1.73;;;22.70;99.90;;;;;;5042651;28;20228;-33
2022/06/26 10:00:12;;;;;;;3.92;2.00;;;22.70;99.90;;;;;;5046656;28;20220;-33
2022/06/26 10:08:21;;;;;;;4.53;2.00;;;23.00;99.90;;;;;;5037986;28;20228;-33
2022/06/26 10:10:49;;;;;;;3.95;2.35;;;23.00;99.90;;;;;;5041144;28;20220;-33
2022/06/26 10:13:24;;;;;;;3.55;1.98;;;23.10;99.90;;;;;;5047157;28;20196;-33
2022/06/26 10:16:08;;;;;;;5.07;2.10;;;23.10;99.90;;;;;;5048521;28;20208;-33
2022/06/26 10:19:02;;;;;;;3.85;1.83;;;23.20;99.90;;;;;;5049007;28;20197;-33
2022/06/26 10:21:35;;;;;;;2.47;1.67;;;23.20;99.90;;;;;;5046866;28;20266;-34
2022/06/26 10:24:06;;;;;;;6.63;1.70;;;23.20;99.90;;;;;;5048366;28;20291;-33
2022/06/26 10:26:34;;;;;;;2.67;1.70;;;23.20;99.90;;;;;;5047537;28;20208;-33
2022/06/26 10:29:03;;;;;;;2.53;1.70;;;23.30;99.90;;;;;;5047969;28;20303;-33
2022/06/26 10:31:31;;;;;;;6.45;2.58;;;23.30;99.90;;;;;;5045322;28;20232;-33
2022/06/26 10:34:19;;;;;;;3.47;2.10;;;23.30;99.90;;;;;;5046286;28;20204;-33
2022/06/26 10:37:06;;;;;;;4.05;2.00;;;23.40;99.90;;;;;;5048102;28;20327;-33
2022/06/26 10:39:43;;;;;;;2.92;1.60;;;23.40;99.90;;;;;;5038650;28;20694;-33
2022/06/26 10:45:05;;;;;;;4.20;1.88;;;23.50;99.90;;;;;;5047869;28;20289;-33
2022/06/26 10:47:45;;;;;;;6.32;2.00;;;23.50;99.90;;;;;;5045211;28;20682;-33
2022/06/26 10:50:42;;;;;;;4.47;2.05;;;23.50;99.90;;;;;;5041895;28;20192;-33
2022/06/26 10:53:19;;;;;;;3.53;1.60;;;23.50;99.90;;;;;;5031236;28;20208;-33
2022/06/26 10:55:46;;;;;;;7.40;2.05;;;23.50;99.90;;;;;;5045498;28;20215;-34
2022/06/26 10:58:21;;;;;;;5.10;1.90;;;23.50;99.90;;;;;;5038501;28;20204;-33
2022/06/26 11:00:49;;;;;;;5.05;2.25;;;23.60;99.90;;;;;;5048201;28;20286;-34
2022/06/26 11:03:21;;;;;;;5.20;2.13;;;23.70;99.90;;;;;;5046783;28;20627;-33
2022/06/26 11:05:59;;;;;;;2.97;1.67;;;23.70;99.90;;;;;;5045155;28;20204;-33
2022/06/26 11:08:54;;;;;;;5.22;2.22;;;23.70;99.90;;;;;;5042093;28;20298;-34
2022/06/26 11:11:33;;;;;;;6.75;2.22;;;23.80;99.90;;;;;;5045069;28;20330;-33
2022/06/26 11:14:08;;;;;;;5.10;2.40;;;23.80;99.90;;;;;;5041916;28;20207;-33
2022/06/26 11:16:38;;;;;;;5.28;3.10;;;23.90;99.90;;;;;;5035477;28;20219;-33
2022/06/26 11:19:07;;;;;;;4.93;2.67;;;24.00;99.90;;;;;;5048137;28;20235;-33
2022/06/26 11:21:37;;;;;;;3.08;2.78;;;24.00;99.90;;;;;;5048602;28;20223;-33
2022/06/26 11:24:06;;;;;;;4.53;2.65;;;24.10;99.90;;;;;;5046676;28;20234;-33
2022/06/26 11:26:34;;;;;;;9.68;2.92;;;24.20;99.90;;;;;;5047957;28;20222;-33
2022/06/26 11:29:08;;;;;;;6.82;2.83;;;24.20;99.90;;;;;;5049038;28;20303;-33
2022/06/26 11:31:36;;;;;;;5.60;2.83;;;24.20;99.90;;;;;;5046470;28;20229;-32
2022/06/26 11:34:08;;;;;;;5.85;2.55;;;24.30;99.90;;;;;;5047049;28;20266;-33
2022/06/26 11:36:35;;;;;;;3.60;2.60;;;24.30;99.90;;;;;;5049477;28;20232;-33
2022/06/26 11:39:05;;;;;;;4.18;2.60;;;24.30;99.90;;;;;;5049233;28;20208;-33
2022/06/26 11:41:34;;;;;;;6.00;3.00;;;24.40;99.90;;;;;;5048471;28;20648;-33
2022/06/26 11:44:04;;;;;;;6.75;2.65;;;24.40;99.90;;;;;;5047528;28;20208;-33
2022/06/26 11:46:34;;;;;;;4.47;2.72;;;24.50;99.90;;;;;;5047040;28;20224;-33
2022/06/26 11:49:04;;;;;;;4.18;2.90;;;24.40;99.90;;;;;;5045243;28;20216;-33
2022/06/26 11:51:35;;;;;;;5.35;3.15;;;24.40;99.90;;;;;;5045613;28;20322;-33
2022/06/26 11:54:02;;;;;;;4.43;3.05;;;24.40;99.90;;;;;;5046329;28;20224;-33
2022/06/26 11:56:30;;;;;;;5.60;2.83;;;24.40;99.90;;;;;;5046297;28;20306;-33
2022/06/26 11:59:01;;;;;;;4.40;2.50;;;24.40;99.90;;;;;;5048275;28;20196;-33
2022/06/26 12:01:33;;;;;;;4.60;2.60;;;24.50;99.90;;;;;;5046899;28;20299;-33
2022/06/26 12:04:01;;;;;;;6.00;3.00;;;24.50;99.90;;;;;;5047287;28;21113;-33
2022/06/26 12:06:40;;;;;;;7.70;2.45;;;24.50;99.90;;;;;;5039589;28;20225;-33
2022/06/26 12:09:24;;;;;;;6.20;2.70;;;24.60;99.90;;;;;;5043709;28;20203;-33
2022/06/26 12:11:54;;;;;;;6.47;2.70;;;24.70;99.90;;;;;;5047836;28;20266;-33
2022/06/26 12:14:25;;;;;;;4.75;2.30;;;24.70;99.90;;;;;;5046622;28;20216;-33
2022/06/26 12:16:59;;;;;;;5.78;2.45;;;24.80;99.90;;;;;;5047559;28;20296;-42
2022/06/26 12:19:37;;;;;;;4.28;2.80;;;24.80;99.90;;;;;;5046720;28;20196;-42
2022/06/26 12:22:06;;;;;;;3.88;2.25;;;24.90;99.90;;;;;;5044840;28;20728;-42
2022/06/26 12:24:33;;;;;;;4.97;2.45;;;24.90;99.90;;;;;;5045288;28;20656;-43
2022/06/26 12:27:04;;;;;;;3.85;2.10;;;25.00;99.90;;;;;;5047790;28;20458;-42
2022/06/26 12:29:34;;;;;;;5.03;2.92;;;25.00;99.90;;;;;;5046756;28;20203;-43
2022/06/26 12:32:04;;;;;;;5.30;2.40;;;25.00;99.90;;;;;;5050019;28;20235;-42
2022/06/26 12:34:31;;;;;;;4.45;2.20;;;25.00;99.90;;;;;;5044755;28;20214;-42
2022/06/26 12:37:00;;;;;;;4.70;2.63;;;25.10;99.90;;;;;;5044743;28;20228;-42
2022/06/26 12:39:34;;;;;;;3.30;2.10;;;25.10;99.90;;;;;;5035599;28;20193;-43
2022/06/26 12:42:10;;;;;;;4.18;2.00;;;25.10;99.90;;;;;;5043274;28;20208;-43
2022/06/26 12:44:37;;;;;;;2.50;1.40;;;25.10;99.90;;;;;;5045932;28;20211;-43
2022/06/26 12:47:07;;;;;;;3.00;1.70;;;25.20;99.90;;;;;;5043143;28;20525;-43
2022/06/26 12:49:36;;;;;;;2.60;1.58;;;25.20;99.90;;;;;;5045063;28;20270;-43
2022/06/26 12:52:05;;;;;;;2.88;1.65;;;25.30;99.90;;;;;;5046338;28;20297;-43
2022/06/26 12:54:34;;;;;;;4.97;2.08;;;25.30;99.90;;;;;;5042346;28;20255;-42
2022/06/26 12:57:04;;;;;;;2.92;1.60;;;25.30;99.90;;;;;;5045751;28;20199;-43
2022/06/26 12:59:31;;;;;;;3.35;1.70;;;25.30;99.90;;;;;;5045250;28;20292;-43
2022/06/26 13:02:02;;;;;;;3.55;2.13;;;25.30;99.90;;;;;;5044337;28;20242;-43
2022/06/26 13:04:29;;;;;;;6.65;2.03;;;25.30;99.90;;;;;;5045848;28;20210;-43
2022/06/26 13:06:56;;;;;;;2.70;1.60;;;25.30;99.90;;;;;;5036452;28;20318;-43
2022/06/26 13:09:25;;;;;;;3.85;1.70;;;25.30;99.90;;;;;;5034847;28;20204;-42
2022/06/26 13:11:53;;;;;;;4.10;1.50;;;25.30;99.90;;;;;;5036220;28;20215;-43
2022/06/26 13:14:22;;;;;;;2.47;1.60;;;25.30;99.90;;;;;;5037825;28;20224;-43
2022/06/26 13:16:52;;;;;;;3.83;1.70;;;25.40;99.90;;;;;;5034674;28;20212;-42